createdAt,value
2023-03-06T00:00:30.901Z,100755.94
2023-03-06T00:02:58.876Z,100757.30
2023-03-06T00:05:27.106Z,100759.30
2023-03-06T00:07:54.933Z,100760.45
2023-03-06T00:10:24.764Z,100757.60
2023-03-06T00:12:53.827Z,100759.37
2023-03-06T00:15:21.798Z,100754.04
2023-03-06T00:17:49.548Z,100757.41
2023-03-06T00:20:17.684Z,100754.89
2023-03-06T00:22:45.579Z,100750.09
2023-03-06T00:25:21.543Z,100748.91
2023-03-06T00:27:49.639Z,100740.21
2023-03-06T00:30:19.491Z,100736.41
2023-03-06T00:32:47.248Z,100737.33
2023-03-06T00:35:15.321Z,100735.99
2023-03-06T00:37:43.210Z,100729.78
2023-03-06T00:40:13.164Z,100734.81
2023-03-06T00:42:41.029Z,100726.64
2023-03-06T00:45:09.328Z,100722.68
2023-03-06T00:47:37.215Z,100723.37
2023-03-06T00:50:05.860Z,100711.53
2023-03-06T00:52:33.751Z,100715.85
2023-03-06T00:55:01.474Z,100706.83
2023-03-06T00:57:29.254Z,100709.64
2023-03-06T00:59:56.975Z,100704.30
2023-03-06T01:02:24.844Z,100699.17
2023-03-06T01:04:52.599Z,100687.66
2023-03-06T01:07:20.345Z,100688.81
2023-03-06T01:09:48.092Z,100677.53
2023-03-06T01:12:15.886Z,100675.83
2023-03-06T01:14:43.634Z,100670.17
2023-03-06T01:17:11.583Z,100661.80
2023-03-06T01:19:39.442Z,100663.96
2023-03-06T01:22:07.179Z,100660.46
2023-03-06T01:24:34.983Z,100649.31
2023-03-06T01:27:02.761Z,100641.47
2023-03-06T01:29:30.495Z,100639.57
2023-03-06T01:31:58.263Z,100635.45
2023-03-06T01:34:26.033Z,100628.13
2023-03-06T01:36:53.758Z,100634.01
2023-03-06T01:39:21.595Z,100622.70
2023-03-06T01:41:49.368Z,100622.70
2023-03-06T01:44:17.180Z,100620.51
2023-03-06T01:46:45.817Z,100618.28
2023-03-06T01:49:19.758Z,100607.33
2023-03-06T01:51:52.416Z,100600.07
2023-03-06T01:54:43.867Z,100601.91
2023-03-06T01:57:19.066Z,100605.63
2023-03-06T01:59:46.838Z,100606.80
2023-03-06T02:02:14.664Z,100601.77
2023-03-06T02:04:43.483Z,100594.13
2023-03-06T02:07:11.312Z,100595.49
2023-03-06T02:09:39.172Z,100597.49
2023-03-06T02:12:14.885Z,100589.55
2023-03-06T02:14:42.747Z,100593.73
2023-03-06T02:17:11.384Z,100588.43
2023-03-06T02:19:57.348Z,100586.44
2023-03-06T02:22:25.205Z,100587.65
2023-03-06T02:25:05.337Z,100577.58
2023-03-06T02:27:33.105Z,100577.45
2023-03-06T02:30:00.860Z,100571.85
2023-03-06T02:32:28.670Z,100567.84
2023-03-06T02:34:57.874Z,100566.36
2023-03-06T02:37:26.466Z,100560.12
2023-03-06T02:39:58.954Z,100564.40
2023-03-06T02:42:27.280Z,100556.26
2023-03-06T02:44:55.075Z,100551.23
2023-03-06T02:47:22.821Z,100551.71
2023-03-06T02:49:50.586Z,100546.02
2023-03-06T02:52:18.551Z,100533.57
2023-03-06T02:54:46.350Z,100534.52
2023-03-06T02:57:14.088Z,100535.95
2023-03-06T02:59:41.852Z,100530.62
2023-03-06T03:02:09.682Z,100529.88
2023-03-06T03:04:37.429Z,100533.53
2023-03-06T03:07:05.347Z,100543.73
2023-03-06T03:09:37.929Z,100535.30
2023-03-06T03:12:07.216Z,100534.98
2023-03-06T03:14:34.961Z,100531.87
2023-03-06T03:17:02.750Z,100528.44
2023-03-06T03:19:30.561Z,100527.45
2023-03-06T03:21:58.385Z,100529.38
2023-03-06T03:24:26.168Z,100523.92
2023-03-06T03:26:54.090Z,100530.46
2023-03-06T03:29:21.913Z,100526.51
2023-03-06T03:31:49.717Z,100526.80
2023-03-06T03:34:17.616Z,100531.61
2023-03-06T03:36:45.649Z,100528.17
2023-03-06T03:39:13.615Z,100528.17
2023-03-06T03:41:41.357Z,100526.51
2023-03-06T03:44:09.167Z,100523.46
2023-03-06T03:46:36.925Z,100520.88
2023-03-06T03:49:04.825Z,100523.92
2023-03-06T03:51:32.751Z,100530.40
2023-03-06T03:54:00.451Z,100516.60
2023-03-06T03:56:28.269Z,100519.67
2023-03-06T03:58:56.523Z,100522.71
2023-03-06T04:01:24.323Z,100513.10
2023-03-06T04:03:52.177Z,100508.82
2023-03-06T04:06:20.073Z,100506.01
2023-03-06T04:08:47.786Z,100511.14
2023-03-06T04:11:15.552Z,100511.14
2023-03-06T04:13:43.293Z,100508.00
2023-03-06T04:16:11.059Z,100502.08
2023-03-06T04:18:38.824Z,100499.23
2023-03-06T04:21:06.746Z,100500.15
2023-03-06T04:23:34.566Z,100491.13
2023-03-06T04:26:02.365Z,100491.98
2023-03-06T04:28:30.251Z,100493.91
2023-03-06T04:30:57.975Z,100492.14
2023-03-06T04:33:25.735Z,100492.14
2023-03-06T04:35:53.578Z,100490.80
2023-03-06T04:38:21.439Z,100488.19
2023-03-06T04:40:50.802Z,100482.56
2023-03-06T04:43:18.707Z,100489.30
2023-03-06T04:45:46.583Z,100484.20
2023-03-06T04:48:15.857Z,100467.29
2023-03-06T04:50:43.668Z,100473.77
2023-03-06T04:53:12.149Z,100464.68
2023-03-06T04:55:39.935Z,100470.04
2023-03-06T04:58:07.684Z,100473.70
2023-03-06T05:00:35.923Z,100477.13
2023-03-06T05:03:03.736Z,100472.91
2023-03-06T05:05:31.513Z,100473.15
2023-03-06T05:07:59.251Z,100477.07
2023-03-06T05:10:26.987Z,100484.03
2023-03-06T05:12:54.808Z,100481.84
2023-03-06T05:15:22.588Z,100483.74
2023-03-06T05:17:50.355Z,100481.74
2023-03-06T05:20:18.311Z,100483.74
2023-03-06T05:22:46.172Z,100480.93
2023-03-06T05:25:14.151Z,100471.09
2023-03-06T05:27:42.055Z,100477.07
2023-03-06T05:30:12.443Z,100476.52
2023-03-06T05:32:40.269Z,100473.77
2023-03-06T05:35:08.480Z,100479.20
2023-03-06T05:37:36.293Z,100476.68
2023-03-06T05:40:07.225Z,100478.90
2023-03-06T05:42:34.976Z,100478.41
2023-03-06T05:45:03.821Z,100478.97
2023-03-06T05:47:32.277Z,100491.39
2023-03-06T05:50:00.189Z,100477.82
2023-03-06T05:52:27.997Z,100484.59
2023-03-06T05:54:55.888Z,100485.77
2023-03-06T05:57:24.476Z,100482.34
2023-03-06T05:59:52.260Z,100486.81
2023-03-06T06:02:20.194Z,100490.02
2023-03-06T06:04:48.044Z,100483.84
2023-03-06T06:07:16.402Z,100488.88
2023-03-06T06:09:46.700Z,100488.25
2023-03-06T06:12:15.202Z,100492.44
2023-03-06T06:14:43.073Z,100497.87
2023-03-06T06:17:11.089Z,100498.78
2023-03-06T06:19:39.480Z,100497.11
2023-03-06T06:22:07.370Z,100493.97
2023-03-06T06:24:35.458Z,100496.16
2023-03-06T06:27:04.039Z,100502.08
2023-03-06T06:29:32.126Z,100509.30
2023-03-06T06:32:00.341Z,100508.36
2023-03-06T06:34:28.662Z,100509.44
2023-03-06T06:36:56.687Z,100508.52
2023-03-06T06:39:24.609Z,100506.85
2023-03-06T06:42:09.722Z,100506.30
2023-03-06T06:44:41.596Z,100509.14
2023-03-06T06:47:25.874Z,100505.91
2023-03-06T06:49:54.861Z,100512.25
2023-03-06T06:52:23.254Z,100507.48
2023-03-06T06:54:51.123Z,100503.16
2023-03-06T06:57:18.946Z,100513.95
2023-03-06T06:59:46.723Z,100513.85
2023-03-06T07:02:15.644Z,100519.80
2023-03-06T07:05:00.240Z,100528.80
2023-03-06T07:07:30.197Z,100523.07
2023-03-06T07:09:58.044Z,100518.73
2023-03-06T07:12:25.809Z,100525.82
2023-03-06T07:14:53.577Z,100526.96
2023-03-06T07:17:21.388Z,100526.63
2023-03-06T07:19:49.673Z,100526.87
2023-03-06T07:22:17.406Z,100532.09
2023-03-06T07:24:45.237Z,100532.42
2023-03-06T07:27:13.001Z,100520.81
2023-03-06T07:29:40.730Z,100526.08
2023-03-06T07:32:08.562Z,100523.98
2023-03-06T07:34:36.448Z,100520.06
2023-03-06T07:37:04.452Z,100517.28
2023-03-06T07:39:32.482Z,100516.77
2023-03-06T07:42:00.455Z,100519.51
2023-03-06T07:44:28.623Z,100510.95
2023-03-06T07:46:56.709Z,100528.30
2023-03-06T07:49:24.725Z,100516.04
2023-03-06T07:51:52.629Z,100536.25
2023-03-06T07:54:20.556Z,100544.78
2023-03-06T07:56:51.795Z,100545.83
2023-03-06T07:59:19.791Z,100540.73
2023-03-06T08:01:47.791Z,100532.33
2023-03-06T08:04:15.760Z,100531.57
2023-03-06T08:06:43.742Z,100533.44
2023-03-06T08:09:12.083Z,100537.43
2023-03-06T08:11:40.091Z,100546.71
2023-03-06T08:14:07.923Z,100541.91
2023-03-06T08:16:35.928Z,100550.08
2023-03-06T08:19:03.961Z,100555.64
2023-03-06T08:21:31.774Z,100553.94
2023-03-06T08:23:59.739Z,100561.30
2023-03-06T08:26:29.583Z,100555.54
2023-03-06T08:28:58.601Z,100564.63
2023-03-06T08:31:26.545Z,100555.02
2023-03-06T08:33:55.528Z,100555.54
2023-03-06T08:36:23.637Z,100561.59
2023-03-06T08:38:51.846Z,100552.76
2023-03-06T08:41:20.475Z,100565.09
2023-03-06T08:43:48.773Z,100562.27
2023-03-06T08:46:17.071Z,100564.37
2023-03-06T08:48:44.984Z,100569.77
2023-03-06T08:51:12.919Z,100563.16
2023-03-06T08:53:43.666Z,100573.46
2023-03-06T08:56:19.722Z,100566.59
2023-03-06T08:58:47.934Z,100570.48
2023-03-06T09:01:26.715Z,100578.03
2023-03-06T09:03:55.687Z,100573.33
2023-03-06T09:06:24.523Z,100569.56
2023-03-06T09:08:53.712Z,100569.41
2023-03-06T09:11:22.962Z,100565.02
2023-03-06T09:13:50.980Z,100571.10
2023-03-06T09:16:29.681Z,100566.76
2023-03-06T09:19:04.506Z,100569.17
2023-03-06T09:21:38.539Z,100570.97
2023-03-06T09:24:08.924Z,100566.07
2023-03-06T09:26:47.159Z,100573.52
2023-03-06T09:29:17.679Z,100572.05
2023-03-06T09:31:47.512Z,100571.43
2023-03-06T09:34:30.474Z,100577.12
2023-03-06T09:37:03.442Z,100564.04
2023-03-06T09:39:31.769Z,100564.11
2023-03-06T09:42:04.380Z,100554.49
2023-03-06T09:44:33.892Z,100565.09
2023-03-06T09:47:09.818Z,100565.38
2023-03-06T09:50:02.799Z,100569.17
2023-03-06T09:52:51.406Z,100568.42
2023-03-06T09:55:20.885Z,100566.46
2023-03-06T09:58:04.981Z,100557.83
2023-03-06T10:00:49.079Z,100566.52
2023-03-06T10:03:31.254Z,100563.71
2023-03-06T10:06:14.791Z,100566.43
2023-03-06T10:09:14.959Z,100557.27
2023-03-06T10:11:54.328Z,100554.52
2023-03-06T10:14:28.854Z,100552.11
2023-03-06T10:16:57.720Z,100550.08
2023-03-06T10:19:27.141Z,100552.27
2023-03-06T10:22:05.857Z,100543.05
2023-03-06T10:24:58.515Z,100552.27
2023-03-06T10:27:44.493Z,100543.67
2023-03-06T10:30:43.893Z,100550.21
2023-03-06T10:33:20.829Z,100542.69
2023-03-06T10:35:56.370Z,100544.23
2023-03-06T10:38:27.739Z,100541.64
2023-03-06T10:41:13.617Z,100538.54
2023-03-06T10:44:07.917Z,100545.01
2023-03-06T10:46:37.736Z,100541.35
2023-03-06T10:49:10.449Z,100538.54
2023-03-06T10:51:38.672Z,100539.42
2023-03-06T10:54:15.746Z,100532.09
2023-03-06T10:56:44.642Z,100539.78
2023-03-06T10:59:15.818Z,100543.31
2023-03-06T11:02:23.325Z,100541.68
2023-03-06T11:04:53.710Z,100539.98
2023-03-06T11:07:29.182Z,100538.18
2023-03-06T11:10:00.300Z,100534.98
2023-03-06T11:12:36.300Z,100534.32
2023-03-06T11:15:30.098Z,100541.02
2023-03-06T11:18:15.165Z,100541.52
2023-03-06T11:20:55.772Z,100542.04
2023-03-06T11:23:48.813Z,100534.68
2023-03-06T11:26:22.308Z,100535.34
2023-03-06T11:29:03.444Z,100531.18
2023-03-06T11:31:57.406Z,100533.05
2023-03-06T11:34:35.374Z,100527.68
2023-03-06T11:37:09.991Z,100524.15
2023-03-06T11:39:56.378Z,100519.48
2023-03-06T11:42:33.044Z,100517.97
2023-03-06T11:45:02.926Z,100516.47
2023-03-06T11:47:34.344Z,100513.62
2023-03-06T11:50:13.877Z,100509.80
2023-03-06T11:52:50.671Z,100506.43
2023-03-06T11:55:37.777Z,100501.91
2023-03-06T11:58:33.615Z,100496.59
2023-03-06T12:01:14.941Z,100502.12
2023-03-06T12:04:04.459Z,100501.95
2023-03-06T12:06:57.076Z,100487.73
2023-03-06T12:09:40.222Z,100485.24
2023-03-06T12:12:29.270Z,100485.41
2023-03-06T12:15:18.379Z,100485.24
2023-03-06T12:18:04.474Z,100475.37
2023-03-06T12:21:07.616Z,100479.33
2023-03-06T12:23:53.721Z,100482.20
2023-03-06T12:26:37.698Z,100483.70
2023-03-06T12:29:20.389Z,100463.30
2023-03-06T12:32:07.535Z,100459.70
2023-03-06T12:34:35.850Z,100461.11
2023-03-06T12:37:38.963Z,100455.59
2023-03-06T12:40:30.286Z,100460.43
2023-03-06T12:43:03.927Z,100444.66
2023-03-06T12:45:35.623Z,100452.88
2023-03-06T12:48:03.969Z,100444.50
2023-03-06T12:50:32.995Z,100450.55
2023-03-06T12:53:34.059Z,100458.07
2023-03-06T12:56:02.914Z,100450.59
2023-03-06T12:58:31.155Z,100447.74
2023-03-06T13:01:08.748Z,100453.95
2023-03-06T13:03:40.602Z,100451.92
2023-03-06T13:06:15.704Z,100453.07
2023-03-06T13:09:02.336Z,100447.91
2023-03-06T13:11:48.869Z,100449.77
2023-03-06T13:14:48.718Z,100448.30
2023-03-06T13:17:21.867Z,100445.95
2023-03-06T13:19:50.328Z,100438.95
2023-03-06T13:22:28.883Z,100441.56
2023-03-06T13:25:18.331Z,100434.40
2023-03-06T13:28:05.272Z,100438.42
2023-03-06T13:30:36.698Z,100439.11
2023-03-06T13:33:40.076Z,100442.77
2023-03-06T13:36:43.790Z,100436.63
2023-03-06T13:39:15.749Z,100438.13
2023-03-06T13:41:59.803Z,100444.80
2023-03-06T13:44:28.007Z,100439.99
2023-03-06T13:47:01.218Z,100439.47
2023-03-06T13:49:29.466Z,100442.64
2023-03-06T13:52:10.596Z,100439.34
2023-03-06T13:55:07.058Z,100432.30
2023-03-06T13:57:44.259Z,100434.99
2023-03-06T14:00:48.056Z,100428.65
2023-03-06T14:03:52.960Z,100430.28
2023-03-06T14:06:35.909Z,100428.45
2023-03-06T14:09:06.115Z,100434.99
2023-03-06T14:11:34.149Z,100433.13
2023-03-06T14:14:02.175Z,100425.44
2023-03-06T14:16:40.619Z,100433.48
2023-03-06T14:19:18.318Z,100427.14
2023-03-06T14:21:46.364Z,100434.11
2023-03-06T14:24:19.035Z,100428.29
2023-03-06T14:26:53.430Z,100422.59
2023-03-06T14:29:26.120Z,100424.79
2023-03-06T14:31:55.518Z,100425.12
2023-03-06T14:34:29.358Z,100430.45
2023-03-06T14:36:59.970Z,100430.97
2023-03-06T14:39:35.489Z,100432.30
2023-03-06T14:42:08.599Z,100433.65
2023-03-06T14:44:37.080Z,100427.47
2023-03-06T14:47:30.850Z,100424.46
2023-03-06T14:50:27.608Z,100419.13
2023-03-06T14:52:59.859Z,100415.11
2023-03-06T14:55:29.085Z,100416.09
2023-03-06T14:58:04.234Z,100415.27
2023-03-06T15:00:36.905Z,100410.80
2023-03-06T15:03:09.937Z,100410.80
2023-03-06T15:05:38.827Z,100422.63
2023-03-06T15:08:08.719Z,100415.96
2023-03-06T15:10:37.058Z,100417.98
2023-03-06T15:13:21.543Z,100411.61
2023-03-06T15:16:05.558Z,100409.42
2023-03-06T15:18:40.302Z,100407.59
2023-03-06T15:21:21.285Z,100412.88
2023-03-06T15:23:50.322Z,100416.05
2023-03-06T15:26:39.627Z,100408.24
2023-03-06T15:29:10.617Z,100416.91
2023-03-06T15:31:43.275Z,100428.74
2023-03-06T15:34:10.979Z,100428.35
2023-03-06T15:36:45.600Z,100422.47
2023-03-06T15:39:32.718Z,100413.80
2023-03-06T15:42:09.081Z,100418.77
2023-03-06T15:44:37.174Z,100414.95
2023-03-06T15:47:09.167Z,100407.91
2023-03-06T15:49:38.944Z,100414.59
2023-03-06T15:52:10.084Z,100416.22
2023-03-06T15:54:38.030Z,100415.21
2023-03-06T15:57:06.910Z,100411.71
2023-03-06T15:59:38.749Z,100409.19
2023-03-06T16:02:17.205Z,100406.80
2023-03-06T16:04:45.401Z,100403.80
2023-03-06T16:07:13.870Z,100407.13
2023-03-06T16:09:43.019Z,100404.84
2023-03-06T16:12:26.873Z,100397.65
2023-03-06T16:14:54.979Z,100414.45
2023-03-06T16:17:22.974Z,100405.14
2023-03-06T16:19:52.093Z,100396.63
2023-03-06T16:22:20.158Z,100392.16
2023-03-06T16:24:48.586Z,100398.47
2023-03-06T16:27:18.383Z,100389.80
2023-03-06T16:29:46.425Z,100403.47
2023-03-06T16:32:14.465Z,100398.11
2023-03-06T16:34:42.545Z,100399.77
2023-03-06T16:37:12.801Z,100404.74
2023-03-06T16:39:40.726Z,100404.91
2023-03-06T16:42:08.700Z,100405.04
2023-03-06T16:44:36.770Z,100400.23
2023-03-06T16:47:04.860Z,100409.35
2023-03-06T16:49:32.765Z,100407.00
2023-03-06T16:52:00.888Z,100406.15
2023-03-06T16:54:29.289Z,100403.66
2023-03-06T16:56:57.601Z,100408.15
2023-03-06T16:59:28.698Z,100409.65
2023-03-06T17:02:02.929Z,100415.83
2023-03-06T17:04:34.430Z,100412.00
2023-03-06T17:07:07.610Z,100414.81
2023-03-06T17:09:36.176Z,100405.50
2023-03-06T17:12:04.220Z,100418.84
2023-03-06T17:14:35.120Z,100418.18
2023-03-06T17:17:04.096Z,100413.28
2023-03-06T17:19:32.407Z,100420.24
2023-03-06T17:22:00.481Z,100428.16
2023-03-06T17:24:28.993Z,100432.47
2023-03-06T17:26:57.201Z,100431.75
2023-03-06T17:29:25.563Z,100441.23
2023-03-06T17:31:53.702Z,100440.58
2023-03-06T17:34:24.285Z,100438.42
2023-03-06T17:36:52.721Z,100435.38
2023-03-06T17:39:21.033Z,100446.37
2023-03-06T17:41:49.201Z,100444.08
2023-03-06T17:44:21.217Z,100453.92
2023-03-06T17:46:49.491Z,100452.88
2023-03-06T17:49:20.475Z,100454.87
2023-03-06T17:51:48.663Z,100448.72
2023-03-06T17:54:17.265Z,100452.19
2023-03-06T17:56:45.331Z,100458.50
2023-03-06T17:59:13.664Z,100461.96
2023-03-06T18:01:42.155Z,100462.45
2023-03-06T18:04:11.091Z,100466.45
2023-03-06T18:06:39.347Z,100465.62
2023-03-06T18:09:07.620Z,100464.97
2023-03-06T18:11:35.730Z,100465.16
2023-03-06T18:14:05.564Z,100470.50
2023-03-06T18:16:33.711Z,100469.65
2023-03-06T18:19:01.974Z,100468.70
2023-03-06T18:21:30.088Z,100470.07
2023-03-06T18:23:59.275Z,100477.49
2023-03-06T18:26:28.974Z,100474.20
2023-03-06T18:28:59.020Z,100474.68
2023-03-06T18:31:29.840Z,100486.65
2023-03-06T18:34:00.189Z,100482.46
2023-03-06T18:36:30.331Z,100479.95
2023-03-06T18:38:58.378Z,100488.74
2023-03-06T18:41:26.549Z,100485.63
2023-03-06T18:43:58.568Z,100488.25
2023-03-06T18:46:27.304Z,100490.57
2023-03-06T18:48:56.487Z,100493.09
2023-03-06T18:51:24.749Z,100504.89
2023-03-06T18:53:53.460Z,100502.60
2023-03-06T18:56:22.505Z,100501.23
2023-03-06T18:58:51.670Z,100501.43
2023-03-06T19:01:20.040Z,100504.27
2023-03-06T19:03:48.239Z,100502.28
2023-03-06T19:06:18.213Z,100503.62
2023-03-06T19:08:46.546Z,100505.61
2023-03-06T19:11:16.162Z,100501.63
2023-03-06T19:13:44.712Z,100509.18
2023-03-06T19:16:20.733Z,100513.98
2023-03-06T19:18:48.843Z,100506.13
2023-03-06T19:21:20.856Z,100511.83
2023-03-06T19:23:48.979Z,100517.48
2023-03-06T19:26:17.564Z,100513.16
2023-03-06T19:28:46.104Z,100511.17
2023-03-06T19:31:31.152Z,100512.51
2023-03-06T19:33:59.581Z,100506.53
2023-03-06T19:36:32.377Z,100506.73
2023-03-06T19:39:03.492Z,100507.18
2023-03-06T19:41:31.727Z,100504.66
2023-03-06T19:44:01.460Z,100506.98
2023-03-06T19:46:29.557Z,100503.78
2023-03-06T19:49:02.394Z,100512.91
2023-03-06T19:51:30.449Z,100509.54
2023-03-06T19:53:58.942Z,100505.68
2023-03-06T19:56:29.042Z,100500.67
2023-03-06T19:58:57.976Z,100503.29
2023-03-06T20:01:27.462Z,100504.77
2023-03-06T20:04:00.777Z,100511.56
2023-03-06T20:06:35.178Z,100502.24
2023-03-06T20:09:05.274Z,100495.25
2023-03-06T20:11:33.774Z,100496.91
2023-03-06T20:14:03.095Z,100494.53
2023-03-06T20:16:31.842Z,100505.84
2023-03-06T20:19:01.533Z,100508.46
2023-03-06T20:21:34.824Z,100509.18
2023-03-06T20:24:05.407Z,100509.63
2023-03-06T20:26:36.186Z,100513.72
2023-03-06T20:29:09.446Z,100511.53
2023-03-06T20:31:38.089Z,100508.52
2023-03-06T20:34:06.552Z,100511.01
2023-03-06T20:36:37.463Z,100513.33
2023-03-06T20:39:07.749Z,100515.09
2023-03-06T20:41:40.547Z,100502.96
2023-03-06T20:44:11.070Z,100502.31
2023-03-06T20:46:40.861Z,100507.87
2023-03-06T20:49:12.929Z,100509.34
2023-03-06T20:51:41.385Z,100512.19
2023-03-06T20:54:11.533Z,100504.63
2023-03-06T20:56:43.025Z,100513.10
2023-03-06T20:59:12.975Z,100509.24
2023-03-06T21:01:43.539Z,100509.57
2023-03-06T21:04:12.862Z,100507.90
2023-03-06T21:06:41.504Z,100503.20
2023-03-06T21:09:09.675Z,100502.67
2023-03-06T21:11:37.892Z,100494.82
2023-03-06T21:14:06.226Z,100498.48
2023-03-06T21:16:34.686Z,100488.31
2023-03-06T21:19:03.371Z,100492.08
2023-03-06T21:21:33.928Z,100495.77
2023-03-06T21:24:02.150Z,100490.77
2023-03-06T21:26:31.377Z,100487.40
2023-03-06T21:29:00.220Z,100487.07
2023-03-06T21:31:31.303Z,100493.05
2023-03-06T21:34:00.304Z,100483.94
2023-03-06T21:36:28.429Z,100482.59
2023-03-06T21:38:56.772Z,100487.07
2023-03-06T21:41:30.646Z,100483.54
2023-03-06T21:43:59.954Z,100486.03
2023-03-06T21:46:28.169Z,100491.16
2023-03-06T21:48:56.770Z,100492.30
2023-03-06T21:51:25.336Z,100480.83
2023-03-06T21:53:53.715Z,100467.00
2023-03-06T21:56:22.924Z,100470.66
2023-03-06T21:58:50.750Z,100465.85
2023-03-06T22:01:20.702Z,100459.05
2023-03-06T22:03:48.620Z,100475.17
2023-03-06T22:06:18.304Z,100461.67
2023-03-06T22:08:46.250Z,100463.66
2023-03-06T22:11:21.997Z,100467.42
2023-03-06T22:13:49.915Z,100465.23
2023-03-06T22:16:19.725Z,100460.91
2023-03-06T22:18:48.571Z,100463.23
2023-03-06T22:21:17.342Z,100462.52
2023-03-06T22:23:45.142Z,100467.65
2023-03-06T22:26:13.916Z,100453.82
2023-03-06T22:28:42.263Z,100459.48
2023-03-06T22:31:11.999Z,100462.62
2023-03-06T22:33:39.938Z,100453.63
2023-03-06T22:36:09.666Z,100461.99
2023-03-06T22:38:38.980Z,100460.33
2023-03-06T22:41:07.163Z,100474.45
2023-03-06T22:43:35.144Z,100460.33
2023-03-06T22:46:16.800Z,100458.82
2023-03-06T22:48:44.744Z,100460.82
2023-03-06T22:51:14.462Z,100455.52
2023-03-06T22:53:42.602Z,100457.81
2023-03-06T22:56:12.193Z,100460.95
2023-03-06T22:58:40.124Z,100459.25
2023-03-06T23:01:13.040Z,100454.15
2023-03-06T23:03:42.233Z,100456.14
2023-03-06T23:06:10.858Z,100450.16
2023-03-06T23:08:38.863Z,100441.04
2023-03-06T23:11:13.308Z,100443.36
2023-03-06T23:13:41.184Z,100435.84
2023-03-06T23:16:09.510Z,100442.84
2023-03-06T23:18:37.917Z,100442.02
2023-03-06T23:21:15.878Z,100455.30
2023-03-06T23:23:45.335Z,100451.30
2023-03-06T23:26:14.588Z,100458.63
2023-03-06T23:28:42.616Z,100458.01
2023-03-06T23:31:14.894Z,100455.72
2023-03-06T23:33:42.854Z,100453.16
2023-03-06T23:36:12.420Z,100454.25
2023-03-06T23:38:40.193Z,100455.06
2023-03-06T23:41:09.394Z,100448.46
2023-03-06T23:43:37.571Z,100449.34
2023-03-06T23:46:05.552Z,100456.30
2023-03-06T23:48:33.400Z,100455.49
2023-03-06T23:51:01.713Z,100458.30
2023-03-06T23:53:29.499Z,100450.16
2023-03-06T23:55:57.615Z,100451.83
2023-03-06T23:58:25.350Z,100439.37
